Time;durP1;ratioP1;P1;durP2;ratioP2;P2;SDS_P1;SDS_P2;PMS_P1;PMS_P2;Temp;Humidity;BMP_temperature;BMP_pressure;BME280_temperature;BME280_humidity;BME280_pressure;Samples;Min_cycle;Max_cycle;Signal;HPM_P1;HPM_P2
2022/06/16 00:02:20;;;;;;;6.40;3.00;;;;;;;;;;5055675;28;20476;-87
2022/06/16 00:04:46;;;;;;;4.20;3.10;;;;;;;;;;5057276;28;20392;-87
2022/06/16 00:07:14;;;;;;;3.92;2.78;;;;;;;;;;5056611;28;20428;-87
2022/06/16 00:09:40;;;;;;;3.33;2.63;;;;;;;;;;5056519;28;20859;-87
2022/06/16 00:12:06;;;;;;;4.68;2.55;;;;;;;;;;5055341;28;20473;-86
2022/06/16 00:14:32;;;;;;;3.55;2.40;;;;;;;;;;5053416;28;20387;-88
2022/06/16 00:16:58;;;;;;;4.30;2.70;;;;;;;;;;5044750;28;20492;-87
2022/06/16 00:19:24;;;;;;;4.22;2.83;;;;;;;;;;5031453;28;20413;-87
2022/06/16 00:21:50;;;;;;;4.07;2.85;;;;;;;;;;5056738;28;20378;-87
2022/06/16 00:24:16;;;;;;;7.53;3.20;;;;;;;;;;5056925;28;20877;-87
2022/06/16 00:26:42;;;;;;;6.28;3.10;;;;;;;;;;5056687;28;20381;-87
2022/06/16 00:29:08;;;;;;;4.47;2.70;;;;;;;;;;5056240;28;20873;-88
2022/06/16 00:31:35;;;;;;;4.97;2.60;;;;;;;;;;5056426;28;20385;-87
2022/06/16 00:34:01;;;;;;;4.18;2.55;;;;;;;;;;5046387;28;20861;-88
2022/06/16 00:36:27;;;;;;;5.93;2.75;;;;;;;;;;5043616;28;20458;-87
2022/06/16 00:38:53;;;;;;;3.20;2.28;;;;;;;;;;5055251;28;20393;-87
2022/06/16 00:41:19;;;;;;;3.08;2.35;;;;;;;;;;5042675;28;20390;-88
2022/06/16 00:43:45;;;;;;;2.88;2.40;;;;;;;;;;5028327;28;20593;-87
2022/06/16 00:46:16;;;;;;;3.38;2.50;;;;;;;;;;5055517;28;20393;-87
2022/06/16 00:48:46;;;;;;;5.30;2.55;;;;;;;;;;5056265;28;20378;-87
2022/06/16 00:51:12;;;;;;;5.30;2.50;;;;;;;;;;5056546;28;20385;-87
2022/06/16 00:53:39;;;;;;;3.33;2.60;;;;;;;;;;5056349;28;20409;-88
2022/06/16 00:56:06;;;;;;;3.77;2.43;;;;;;;;;;5056085;28;20462;-87
2022/06/16 00:58:34;;;;;;;4.32;2.70;;;;;;;;;;5056862;28;20409;-87
2022/06/16 01:01:00;;;;;;;4.05;2.58;;;;;;;;;;5056205;28;20377;-87
2022/06/16 01:06:24;;;;;;;3.40;2.42;;;;;;;;;;5050929;28;20382;-87
2022/06/16 01:08:56;;;;;;;4.55;2.55;;;;;;;;;;5047973;28;20389;-87
2022/06/16 01:14:45;;;;;;;3.33;2.35;;;;;;;;;;5054883;28;20443;-88
2022/06/16 01:17:15;;;;;;;4.00;2.35;;;;;;;;;;5054314;28;20431;-88
2022/06/16 01:19:55;;;;;;;4.30;2.50;;;;;;;;;;5055145;28;20408;-88
2022/06/16 01:22:51;;;;;;;2.50;2.03;;;;;;;;;;5050439;28;20445;-88
2022/06/16 01:25:27;;;;;;;3.10;2.53;;;;;;;;;;5006271;28;20385;-88
2022/06/16 01:27:55;;;;;;;3.50;2.58;;;;;;;;;;5055006;28;20388;-85
2022/06/16 01:30:29;;;;;;;3.90;2.30;;;;;;;;;;5055209;28;20862;-86
2022/06/16 01:33:08;;;;;;;3.47;2.45;;;;;;;;;;5055412;28;20496;-87
2022/06/16 01:35:53;;;;;;;3.63;2.63;;;;;;;;;;5042182;28;20390;-87
2022/06/16 01:38:38;;;;;;;4.90;2.50;;;;;;;;;;5051633;28;20908;-87
2022/06/16 01:41:16;;;;;;;5.28;2.60;;;;;;;;;;5043080;28;20407;-87
2022/06/16 01:43:45;;;;;;;3.25;2.47;;;;;;;;;;5040173;28;20397;-87
2022/06/16 01:46:17;;;;;;;6.45;2.72;;;;;;;;;;5054454;28;20432;-86
2022/06/16 01:48:45;;;;;;;2.73;2.50;;;;;;;;;;5054366;28;20381;-87
2022/06/16 01:51:18;;;;;;;4.22;2.70;;;;;;;;;;5023383;28;20414;-87
2022/06/16 01:53:52;;;;;;;4.93;2.65;;;;;;;;;;5031473;28;20438;-85
2022/06/16 01:56:41;;;;;;;2.97;2.63;;;;;;;;;;5053677;28;20392;-87
2022/06/16 01:59:11;;;;;;;3.30;2.42;;;;;;;;;;5049971;28;20377;-86
2022/06/16 02:01:42;;;;;;;4.22;2.70;;;;;;;;;;5036429;28;20384;-89
2022/06/16 02:04:14;;;;;;;4.03;2.88;;;;;;;;;;5050085;28;20377;-88
2022/06/16 02:06:43;;;;;;;4.53;2.60;;;;;;;;;;5052005;28;20394;-87
2022/06/16 02:09:11;;;;;;;4.05;2.60;;;;;;;;;;5033724;28;20376;-88
2022/06/16 02:11:38;;;;;;;2.60;2.40;;;;;;;;;;5054154;28;20389;-87
2022/06/16 02:14:13;;;;;;;3.13;2.55;;;;;;;;;;5054163;28;20405;-87
2022/06/16 02:16:40;;;;;;;4.78;2.80;;;;;;;;;;5028254;28;20404;-87
2022/06/16 02:19:09;;;;;;;4.50;2.80;;;;;;;;;;5054337;28;20469;-88
2022/06/16 02:21:37;;;;;;;3.55;2.60;;;;;;;;;;5054098;28;20747;-87
2022/06/16 02:24:04;;;;;;;4.28;2.85;;;;;;;;;;5053852;28;20378;-87
2022/06/16 02:26:31;;;;;;;3.85;2.63;;;;;;;;;;5053341;28;20392;-87
2022/06/16 02:28:59;;;;;;;2.90;2.60;;;;;;;;;;5053927;28;20386;-87
2022/06/16 02:31:31;;;;;;;4.77;2.70;;;;;;;;;;5053735;28;20834;-87
2022/06/16 02:34:03;;;;;;;4.10;2.73;;;;;;;;;;5052286;28;20409;-87
2022/06/16 02:36:32;;;;;;;3.42;2.53;;;;;;;;;;5044803;28;20381;-87
2022/06/16 02:38:58;;;;;;;3.13;2.53;;;;;;;;;;5052419;28;20717;-87
2022/06/16 02:41:43;;;;;;;4.07;2.65;;;;;;;;;;5053781;28;20382;-87
2022/06/16 02:44:26;;;;;;;4.30;3.15;;;;;;;;;;5053530;28;20945;-87
2022/06/16 02:46:57;;;;;;;3.08;2.70;;;;;;;;;;5053200;28;20385;-88
2022/06/16 02:49:37;;;;;;;3.60;2.58;;;;;;;;;;5053633;28;20386;-88
2022/06/16 02:52:09;;;;;;;3.20;2.90;;;;;;;;;;5053341;28;20806;-88
2022/06/16 02:54:38;;;;;;;3.73;2.70;;;;;;;;;;5053651;28;20485;-88
2022/06/16 02:57:11;;;;;;;3.55;2.47;;;;;;;;;;5053187;28;20380;-88
2022/06/16 02:59:37;;;;;;;4.68;2.42;;;;;;;;;;5027046;28;20380;-88
2022/06/16 03:02:05;;;;;;;3.20;2.57;;;;;;;;;;5053240;28;20992;-88
2022/06/16 03:04:34;;;;;;;3.75;2.35;;;;;;;;;;5052196;28;20398;-88
2022/06/16 03:07:00;;;;;;;3.25;2.63;;;;;;;;;;5053418;28;20382;-88
2022/06/16 03:09:26;;;;;;;3.17;2.78;;;;;;;;;;5051510;28;20386;-88
2022/06/16 03:11:52;;;;;;;4.20;2.70;;;;;;;;;;5053007;28;20385;-88
2022/06/16 03:14:19;;;;;;;3.47;2.47;;;;;;;;;;5052602;28;20917;-88
2022/06/16 03:16:45;;;;;;;3.92;2.75;;;;;;;;;;5033502;28;20375;-89
2022/06/16 03:19:11;;;;;;;3.10;2.58;;;;;;;;;;5047969;28;20378;-88
2022/06/16 03:21:38;;;;;;;3.60;2.90;;;;;;;;;;5051962;28;20564;-88
2022/06/16 03:24:04;;;;;;;3.40;3.00;;;;;;;;;;5052986;28;20385;-88
2022/06/16 03:26:30;;;;;;;4.43;2.88;;;;;;;;;;5052222;28;20937;-88
2022/06/16 03:28:56;;;;;;;3.30;2.75;;;;;;;;;;5053394;28;20425;-89
2022/06/16 03:31:22;;;;;;;3.80;2.88;;;;;;;;;;5044028;28;20391;-88
2022/06/16 03:33:48;;;;;;;3.88;2.50;;;;;;;;;;5032433;28;20477;-88
2022/06/16 03:36:14;;;;;;;4.57;2.85;;;;;;;;;;5033144;28;20467;-88
2022/06/16 03:41:07;;;;;;;3.55;2.97;;;;;;;;;;5037783;28;20381;-88
2022/06/16 03:43:33;;;;;;;2.72;2.53;;;;;;;;;;5049672;28;20468;-88
2022/06/16 03:45:59;;;;;;;4.57;2.65;;;;;;;;;;5052806;28;20424;-88
2022/06/16 03:48:25;;;;;;;3.50;2.80;;;;;;;;;;5052805;28;20932;-88
2022/06/16 03:50:51;;;;;;;4.05;2.50;;;;;;;;;;5038722;28;20378;-88
2022/06/16 03:53:17;;;;;;;2.75;2.55;;;;;;;;;;5052566;28;20902;-89
2022/06/16 03:55:43;;;;;;;3.75;2.42;;;;;;;;;;5053253;28;20416;-88
2022/06/16 03:58:10;;;;;;;3.33;2.70;;;;;;;;;;5052972;28;20378;-88
2022/06/16 04:00:36;;;;;;;4.22;2.83;;;;;;;;;;5038920;28;20397;-88
2022/06/16 04:05:47;;;;;;;4.10;2.67;;;;;;;;;;5052749;28;20439;-89
2022/06/16 04:08:14;;;;;;;4.95;2.92;;;;;;;;;;5051478;28;20819;-88
2022/06/16 04:10:40;;;;;;;4.57;2.70;;;;;;;;;;5051433;28;20381;-88
2022/06/16 04:13:06;;;;;;;3.72;2.90;;;;;;;;;;5027723;28;20405;-88
2022/06/16 04:15:33;;;;;;;3.30;2.70;;;;;;;;;;5051582;28;20390;-88
2022/06/16 04:17:59;;;;;;;3.35;2.60;;;;;;;;;;5052555;28;20429;-88
2022/06/16 04:20:25;;;;;;;4.60;2.53;;;;;;;;;;5051717;28;20916;-88
2022/06/16 04:22:51;;;;;;;3.75;2.80;;;;;;;;;;5055946;28;20863;-88
2022/06/16 04:25:19;;;;;;;2.73;2.43;;;;;;;;;;5056590;28;20423;-88
2022/06/16 04:27:45;;;;;;;3.30;3.00;;;;;;;;;;5054930;28;20891;-88
2022/06/16 04:30:12;;;;;;;5.50;3.10;;;;;;;;;;5056383;28;20385;-88
2022/06/16 04:32:38;;;;;;;3.22;2.60;;;;;;;;;;5055990;28;20431;-88
2022/06/16 04:35:04;;;;;;;3.10;2.80;;;;;;;;;;5042122;28;20378;-88
2022/06/16 04:37:30;;;;;;;3.47;2.90;;;;;;;;;;5047378;28;20385;-88
2022/06/16 04:39:56;;;;;;;3.33;2.90;;;;;;;;;;5056011;28;20393;-88
2022/06/16 04:42:22;;;;;;;3.53;2.78;;;;;;;;;;5055931;28;20385;-88
2022/06/16 04:44:48;;;;;;;3.03;2.40;;;;;;;;;;5055668;28;20381;-88
2022/06/16 04:47:14;;;;;;;4.03;2.80;;;;;;;;;;5056168;28;20503;-88
2022/06/16 04:49:40;;;;;;;3.20;2.90;;;;;;;;;;5055779;28;20396;-88
2022/06/16 04:52:06;;;;;;;3.28;2.90;;;;;;;;;;5055836;28;20392;-87
2022/06/16 04:54:32;;;;;;;4.20;2.80;;;;;;;;;;5055736;28;20410;-88
2022/06/16 04:56:59;;;;;;;3.92;2.75;;;;;;;;;;5055870;28;20382;-88
2022/06/16 04:59:25;;;;;;;4.70;2.67;;;;;;;;;;5055251;28;20857;-90
2022/06/16 05:01:53;;;;;;;2.95;2.67;;;;;;;;;;5055974;28;20377;-89
2022/06/16 05:04:19;;;;;;;3.33;2.75;;;;;;;;;;5054328;28;20759;-89
2022/06/16 05:06:45;;;;;;;4.00;3.15;;;;;;;;;;5055587;28;20385;-89
2022/06/16 05:09:11;;;;;;;3.55;2.85;;;;;;;;;;5055729;28;20382;-86
2022/06/16 05:11:37;;;;;;;3.38;3.08;;;;;;;;;;5055738;28;20416;-88
2022/06/16 05:14:03;;;;;;;3.95;3.40;;;;;;;;;;5055028;28;20416;-89
2022/06/16 05:16:30;;;;;;;3.83;3.43;;;;;;;;;;5053741;28;20374;-90
2022/06/16 05:18:56;;;;;;;4.07;3.63;;;;;;;;;;5055843;28;20829;-88
2022/06/16 05:21:22;;;;;;;3.95;3.20;;;;;;;;;;5053486;28;20472;-87
2022/06/16 05:23:48;;;;;;;4.20;3.70;;;;;;;;;;5035094;28;20469;-87
2022/06/16 05:26:15;;;;;;;5.00;4.43;;;;;;;;;;5036697;28;20391;-89
2022/06/16 05:28:41;;;;;;;5.10;4.45;;;;;;;;;;5045849;28;20388;-88
2022/06/16 05:31:07;;;;;;;5.03;3.60;;;;;;;;;;5049133;28;20381;-89
2022/06/16 05:33:34;;;;;;;6.80;4.20;;;;;;;;;;5050501;28;20401;-89
2022/06/16 05:36:05;;;;;;;5.70;5.05;;;;;;;;;;5039854;28;20374;-89
2022/06/16 05:38:31;;;;;;;7.03;4.53;;;;;;;;;;5034258;28;20421;-88
2022/06/16 05:40:58;;;;;;;6.07;5.07;;;;;;;;;;5034926;28;20375;-89
2022/06/16 05:43:24;;;;;;;6.57;4.53;;;;;;;;;;5034203;28;20389;-88
2022/06/16 05:45:51;;;;;;;6.00;4.50;;;;;;;;;;5042454;28;20390;-87
2022/06/16 05:48:17;;;;;;;7.28;5.07;;;;;;;;;;5033603;28;20814;-89
2022/06/16 05:50:44;;;;;;;6.47;4.93;;;;;;;;;;5032948;28;20401;-88
2022/06/16 05:53:10;;;;;;;6.40;4.93;;;;;;;;;;5051074;28;20931;-89
2022/06/16 05:55:36;;;;;;;7.15;4.90;;;;;;;;;;5047403;28;20386;-89
2022/06/16 05:58:02;;;;;;;6.40;4.90;;;;;;;;;;5026331;28;20380;-88
2022/06/16 06:00:28;;;;;;;9.60;5.70;;;;;;;;;;5041128;28;20385;-88
2022/06/16 06:02:57;;;;;;;7.47;5.05;;;;;;;;;;5052167;28;20484;-90
2022/06/16 06:05:23;;;;;;;7.30;4.72;;;;;;;;;;5046397;28;20387;-89
2022/06/16 06:18:48;;;;;;;7.60;5.20;;;;;;;;;;5053762;28;20377;-88
2022/06/16 06:21:14;;;;;;;6.63;3.92;;;;;;;;;;5052467;28;20863;-88
2022/06/16 06:23:40;;;;;;;6.18;3.83;;;;;;;;;;5033057;28;20390;-88
2022/06/16 06:26:06;;;;;;;8.65;3.63;;;;;;;;;;5030868;28;20899;-88
2022/06/16 06:28:32;;;;;;;5.57;3.60;;;;;;;;;;5054095;28;20378;-88
2022/06/16 06:30:58;;;;;;;8.07;3.67;;;;;;;;;;5034072;28;20383;-87
2022/06/16 06:33:24;;;;;;;5.70;3.80;;;;;;;;;;5049519;28;20413;-88
2022/06/16 06:35:50;;;;;;;9.48;3.58;;;;;;;;;;5038760;28;20873;-88
2022/06/16 06:38:16;;;;;;;6.97;3.80;;;;;;;;;;5048908;28;20385;-88
2022/06/16 06:40:42;;;;;;;7.93;4.47;;;;;;;;;;5043092;28;20382;-88
2022/06/16 06:43:08;;;;;;;7.15;4.20;;;;;;;;;;5053556;28;20414;-87
2022/06/16 06:45:35;;;;;;;9.18;4.32;;;;;;;;;;5047428;28;20389;-88
2022/06/16 06:48:03;;;;;;;6.28;4.15;;;;;;;;;;5042427;28;20383;-87
2022/06/16 06:50:31;;;;;;;7.65;4.20;;;;;;;;;;5052870;28;20392;-87
2022/06/16 06:52:57;;;;;;;6.97;3.95;;;;;;;;;;5053510;28;20437;-88
2022/06/16 06:55:23;;;;;;;7.05;4.30;;;;;;;;;;5053573;28;20385;-88
2022/06/16 06:57:53;;;;;;;6.80;4.32;;;;;;;;;;5053140;28;20378;-87
2022/06/16 07:00:20;;;;;;;8.20;4.28;;;;;;;;;;5051513;28;20369;-88
2022/06/16 07:02:46;;;;;;;6.60;4.00;;;;;;;;;;5031897;28;20496;-87
2022/06/16 07:05:12;;;;;;;8.98;4.05;;;;;;;;;;5051780;28;20392;-87
2022/06/16 07:07:38;;;;;;;7.22;3.97;;;;;;;;;;5037418;28;20452;-88
2022/06/16 07:10:06;;;;;;;7.90;4.18;;;;;;;;;;5053059;28;20381;-86
2022/06/16 07:12:32;;;;;;;5.93;3.93;;;;;;;;;;5052715;28;20879;-87
2022/06/16 07:14:58;;;;;;;6.28;3.92;;;;;;;;;;5052850;28;20392;-88
2022/06/16 07:17:24;;;;;;;7.75;3.78;;;;;;;;;;5047288;28;20371;-87
2022/06/16 07:19:51;;;;;;;7.30;3.93;;;;;;;;;;5046040;28;20373;-90
2022/06/16 07:22:17;;;;;;;8.20;4.18;;;;;;;;;;5053004;28;20392;-90
2022/06/16 07:24:43;;;;;;;6.35;3.83;;;;;;;;;;5036531;28;20399;-89
2022/06/16 07:27:09;;;;;;;7.00;4.28;;;;;;;;;;5032021;28;20383;-87
2022/06/16 07:29:36;;;;;;;7.30;4.20;;;;;;;;;;5033137;28;20857;-87
2022/06/16 07:32:02;;;;;;;7.23;4.03;;;;;;;;;;5016969;28;20460;-90
2022/06/16 07:34:29;;;;;;;8.73;4.07;;;;;;;;;;5017565;28;20408;-89
2022/06/16 07:36:55;;;;;;;5.88;3.95;;;;;;;;;;5020281;28;20485;-89
2022/06/16 07:39:21;;;;;;;7.82;4.10;;;;;;;;;;5028437;28;20749;-88
2022/06/16 07:41:48;;;;;;;6.28;4.07;;;;;;;;;;5047314;28;20875;-88
2022/06/16 07:44:15;;;;;;;9.20;4.03;;;;;;;;;;5030217;28;20805;-88
2022/06/16 07:46:42;;;;;;;9.18;4.30;;;;;;;;;;5036099;28;20403;-87
2022/06/16 07:49:10;;;;;;;8.38;4.22;;;;;;;;;;5029257;28;20385;-89
2022/06/16 07:51:36;;;;;;;7.22;4.05;;;;;;;;;;5018855;28;20439;-87
2022/06/16 07:54:02;;;;;;;6.70;4.15;;;;;;;;;;5019118;28;20400;-87
2022/06/16 07:56:28;;;;;;;6.95;4.20;;;;;;;;;;5018378;28;20854;-88
2022/06/16 07:58:54;;;;;;;6.85;4.20;;;;;;;;;;5022857;28;20404;-87
2022/06/16 08:01:20;;;;;;;9.80;4.28;;;;;;;;;;5036329;28;20382;-87
2022/06/16 08:03:46;;;;;;;7.45;4.10;;;;;;;;;;5056963;28;20388;-87
2022/06/16 08:06:15;;;;;;;7.53;3.97;;;;;;;;;;5056625;28;20403;-87
2022/06/16 08:08:41;;;;;;;7.88;4.22;;;;;;;;;;5046660;28;20400;-86
2022/06/16 08:12:03;;;;;;;8.48;4.25;;;;;;;;;;5024604;28;20385;-89
2022/06/16 08:13:54;;;;;;;8.25;4.30;;;;;;;;;;5056893;28;20428;-86
2022/06/16 08:16:20;;;;;;;8.95;4.50;;;;;;;;;;5048306;28;20392;-88
2022/06/16 08:18:46;;;;;;;6.85;4.57;;;;;;;;;;5036338;28;20405;-87
2022/06/16 08:21:12;;;;;;;8.30;4.35;;;;;;;;;;5057220;28;20385;-87
2022/06/16 08:23:38;;;;;;;8.80;4.50;;;;;;;;;;5056706;28;20385;-87
2022/06/16 08:26:04;;;;;;;5.90;4.40;;;;;;;;;;5056670;28;20909;-88
2022/06/16 08:28:30;;;;;;;5.72;3.88;;;;;;;;;;5045349;28;20392;-86
2022/06/16 08:30:56;;;;;;;7.15;4.18;;;;;;;;;;5037447;28;20401;-88
2022/06/16 08:33:23;;;;;;;6.95;4.22;;;;;;;;;;5023421;28;20437;-88
2022/06/16 08:35:49;;;;;;;7.65;4.28;;;;;;;;;;5025357;28;20389;-88
2022/06/16 08:38:15;;;;;;;8.40;4.03;;;;;;;;;;5038465;28;20736;-88
2022/06/16 08:40:43;;;;;;;6.70;4.45;;;;;;;;;;5055574;28;20861;-89
2022/06/16 08:43:29;;;;;;;9.23;4.50;;;;;;;;;;5055819;28;20835;-87
2022/06/16 08:45:58;;;;;;;6.60;3.90;;;;;;;;;;5044500;28;20382;-87
2022/06/16 08:48:28;;;;;;;6.45;4.32;;;;;;;;;;5055650;28;20381;-86
2022/06/16 08:50:57;;;;;;;6.25;4.00;;;;;;;;;;5050048;28;20391;-86
2022/06/16 08:53:23;;;;;;;8.07;4.30;;;;;;;;;;5038074;28;20409;-87
2022/06/16 08:55:49;;;;;;;7.88;3.90;;;;;;;;;;5035201;28;20400;-88
2022/06/16 08:58:24;;;;;;;6.10;3.92;;;;;;;;;;5046549;28;20854;-88
2022/06/16 09:00:55;;;;;;;8.15;4.15;;;;;;;;;;5050968;28;20482;-87
2022/06/16 09:03:21;;;;;;;7.65;4.20;;;;;;;;;;5034155;28;20874;-87
2022/06/16 09:05:51;;;;;;;5.55;4.22;;;;;;;;;;5050647;28;20385;-87
2022/06/16 09:08:23;;;;;;;7.38;3.80;;;;;;;;;;5032867;28;20758;-88
2022/06/16 09:11:01;;;;;;;6.20;3.70;;;;;;;;;;5054035;28;20468;-87
2022/06/16 09:13:33;;;;;;;5.90;4.05;;;;;;;;;;5028459;28;20417;-85
2022/06/16 09:16:05;;;;;;;6.32;4.13;;;;;;;;;;5022153;28;20373;-86
2022/06/16 09:18:43;;;;;;;7.07;3.70;;;;;;;;;;5030204;28;20878;-87
2022/06/16 09:21:12;;;;;;;5.97;3.70;;;;;;;;;;5034548;28;20434;-86
2022/06/16 09:23:41;;;;;;;7.72;4.30;;;;;;;;;;5035733;28;20388;-86
2022/06/16 09:26:12;;;;;;;8.00;3.63;;;;;;;;;;5029340;28;20441;-86
2022/06/16 09:28:44;;;;;;;5.82;3.70;;;;;;;;;;5034654;28;20410;-85
2022/06/16 09:31:14;;;;;;;5.20;4.00;;;;;;;;;;5035122;28;20402;-86
2022/06/16 09:33:45;;;;;;;6.20;3.80;;;;;;;;;;5030633;28;20395;-86
2022/06/16 09:36:13;;;;;;;7.35;3.70;;;;;;;;;;5032065;28;20940;-86
2022/06/16 09:38:39;;;;;;;5.03;3.55;;;;;;;;;;5019763;28;20373;-86
2022/06/16 09:41:05;;;;;;;7.15;3.70;;;;;;;;;;5038852;28;20377;-86
2022/06/16 09:43:37;;;;;;;5.30;3.50;;;;;;;;;;5053936;28;20385;-87
2022/06/16 09:46:11;;;;;;;7.53;3.80;;;;;;;;;;5054363;28;20735;-88
2022/06/16 09:48:55;;;;;;;5.53;3.60;;;;;;;;;;5054605;28;20389;-87
2022/06/16 09:51:25;;;;;;;4.43;3.50;;;;;;;;;;5038907;28;20386;-87
2022/06/16 09:53:54;;;;;;;6.07;3.65;;;;;;;;;;5054512;28;20416;-91
2022/06/16 09:56:20;;;;;;;7.45;3.97;;;;;;;;;;5054760;28;20431;-86
2022/06/16 09:58:53;;;;;;;5.13;3.85;;;;;;;;;;5029635;28;20381;-87
2022/06/16 10:01:20;;;;;;;5.27;4.03;;;;;;;;;;5016706;28;20431;-88
2022/06/16 10:04:03;;;;;;;7.05;3.80;;;;;;;;;;5039495;28;20377;-90
2022/06/16 10:06:38;;;;;;;8.73;4.10;;;;;;;;;;5054306;28;20460;-89
2022/06/16 10:09:23;;;;;;;7.33;4.23;;;;;;;;;;5052353;28;20408;-90
2022/06/16 10:11:58;;;;;;;7.82;4.10;;;;;;;;;;5035204;28;20385;-88
2022/06/16 10:14:27;;;;;;;7.00;4.00;;;;;;;;;;5053860;28;20924;-87
2022/06/16 10:16:56;;;;;;;8.40;4.30;;;;;;;;;;5053654;28;20403;-88
2022/06/16 10:19:23;;;;;;;7.00;4.00;;;;;;;;;;5051930;28;20389;-86
2022/06/16 10:21:49;;;;;;;7.63;3.90;;;;;;;;;;5029713;28;20381;-86
2022/06/16 10:24:16;;;;;;;7.45;4.20;;;;;;;;;;5052552;28;20390;-85
2022/06/16 10:26:43;;;;;;;4.85;3.40;;;;;;;;;;5040016;28;20394;-87
2022/06/16 10:29:13;;;;;;;6.27;3.93;;;;;;;;;;5054086;28;20885;-89
2022/06/16 10:31:40;;;;;;;5.07;3.50;;;;;;;;;;5032783;28;20821;-87
2022/06/16 10:34:15;;;;;;;4.93;2.80;;;;;;;;;;5022368;28;20424;-87
2022/06/16 10:36:46;;;;;;;4.95;3.30;;;;;;;;;;5022179;28;20885;-87
2022/06/16 10:39:23;;;;;;;5.68;2.70;;;;;;;;;;5016984;28;20377;-88
2022/06/16 10:42:00;;;;;;;4.57;2.45;;;;;;;;;;5022024;28;20377;-88
2022/06/16 10:44:27;;;;;;;6.45;2.65;;;;;;;;;;5017773;28;20397;-88
2022/06/16 10:46:55;;;;;;;3.97;2.00;;;;;;;;;;5029968;28;20419;-87
2022/06/16 10:49:40;;;;;;;3.20;2.28;;;;;;;;;;5024574;28;20469;-87
2022/06/16 10:52:14;;;;;;;4.60;2.03;;;;;;;;;;5040234;28;20749;-88
2022/06/16 10:54:44;;;;;;;5.53;2.53;;;;;;;;;;5023892;28;20443;-88
2022/06/16 10:57:16;;;;;;;5.15;2.28;;;;;;;;;;5022004;28;20907;-88
2022/06/16 10:59:47;;;;;;;3.35;2.00;;;;;;;;;;5020028;28;20384;-88
2022/06/16 11:02:22;;;;;;;3.00;1.90;;;;;;;;;;5017347;28;20382;-88
2022/06/16 11:04:56;;;;;;;4.07;2.17;;;;;;;;;;5042957;28;20399;-88
2022/06/16 11:07:22;;;;;;;3.45;2.03;;;;;;;;;;5021961;28;20400;-89
2022/06/16 11:09:49;;;;;;;4.97;1.88;;;;;;;;;;5052477;28;20386;-90
2022/06/16 11:12:16;;;;;;;4.43;2.03;;;;;;;;;;5053009;28;20882;-88
2022/06/16 11:14:45;;;;;;;3.60;1.92;;;;;;;;;;5048380;28;20437;-87
2022/06/16 11:17:20;;;;;;;3.17;1.90;;;;;;;;;;5020322;28;20385;-88
2022/06/16 11:19:52;;;;;;;4.03;2.10;;;;;;;;;;5020849;28;20387;-89
2022/06/16 11:22:27;;;;;;;2.95;1.98;;;;;;;;;;5031627;28;20453;-88
2022/06/16 11:25:07;;;;;;;4.22;1.70;;;;;;;;;;5017947;28;20728;-87
2022/06/16 11:27:41;;;;;;;2.53;1.70;;;;;;;;;;5017376;28;20736;-87
2022/06/16 11:30:25;;;;;;;3.50;1.60;;;;;;;;;;5047526;28;20491;-91
2022/06/16 11:32:51;;;;;;;3.72;1.70;;;;;;;;;;5041024;28;20371;-88
2022/06/16 11:35:17;;;;;;;3.13;1.75;;;;;;;;;;5039212;28;20739;-89
2022/06/16 11:37:55;;;;;;;2.53;1.80;;;;;;;;;;5033295;28;20406;-90
2022/06/16 11:40:38;;;;;;;2.40;1.70;;;;;;;;;;5038303;28;20374;-90
2022/06/16 11:43:30;;;;;;;2.08;1.60;;;;;;;;;;5036321;28;20385;-89
2022/06/16 11:46:06;;;;;;;3.37;1.70;;;;;;;;;;5023416;28;20450;-88
2022/06/16 11:48:44;;;;;;;2.40;1.70;;;;;;;;;;5056805;28;20384;-87
2022/06/16 11:51:13;;;;;;;3.40;1.70;;;;;;;;;;5031263;28;20398;-86
2022/06/16 11:53:39;;;;;;;2.67;1.55;;;;;;;;;;5051706;28;20416;-87
2022/06/16 11:56:19;;;;;;;3.58;1.80;;;;;;;;;;5035516;28;20377;-87
2022/06/16 11:58:45;;;;;;;3.70;1.77;;;;;;;;;;5059785;28;20859;-88
2022/06/16 12:01:21;;;;;;;5.37;1.83;;;;;;;;;;5059475;28;20384;-87
2022/06/16 12:03:57;;;;;;;2.83;1.67;;;;;;;;;;5059507;28;20393;-87
2022/06/16 12:06:28;;;;;;;3.60;1.70;;;;;;;;;;5033104;28;20408;-86
2022/06/16 12:08:57;;;;;;;4.00;1.60;;;;;;;;;;5060088;28;20408;-85
2022/06/16 12:11:30;;;;;;;3.60;1.88;;;;;;;;;;5034543;28;20874;-86
2022/06/16 12:13:56;;;;;;;3.28;1.83;;;;;;;;;;5058618;28;20408;-87
2022/06/16 12:16:22;;;;;;;4.63;1.83;;;;;;;;;;5058964;28;20377;-87
2022/06/16 12:18:54;;;;;;;3.08;1.73;;;;;;;;;;5052872;28;20378;-86
2022/06/16 12:21:29;;;;;;;4.33;1.90;;;;;;;;;;5058966;28;20388;-87
2022/06/16 12:24:14;;;;;;;3.25;1.95;;;;;;;;;;5059047;28;20559;-87
2022/06/16 12:26:46;;;;;;;4.25;1.83;;;;;;;;;;5058925;28;20836;-86
2022/06/16 12:29:15;;;;;;;4.13;1.80;;;;;;;;;;5059133;28;20377;-87
2022/06/16 12:31:44;;;;;;;2.95;1.90;;;;;;;;;;5031747;28;20408;-86
2022/06/16 12:34:13;;;;;;;6.22;1.88;;;;;;;;;;5039777;28;20405;-87
2022/06/16 12:36:43;;;;;;;2.58;1.73;;;;;;;;;;5034794;28;20516;-87
2022/06/16 12:39:16;;;;;;;3.05;1.42;;;;;;;;;;5059104;28;20492;-87
2022/06/16 12:41:46;;;;;;;3.88;1.70;;;;;;;;;;5058851;28;20370;-87
2022/06/16 12:44:17;;;;;;;3.33;1.75;;;;;;;;;;5042243;28;20482;-87
2022/06/16 12:46:55;;;;;;;2.80;1.63;;;;;;;;;;5035581;28;20391;-87
2022/06/16 12:49:26;;;;;;;2.58;1.55;;;;;;;;;;5047438;28;20389;-87
2022/06/16 12:51:55;;;;;;;2.63;1.70;;;;;;;;;;5023420;28;20395;-85
2022/06/16 12:54:25;;;;;;;2.83;1.60;;;;;;;;;;5029928;28;20972;-86
2022/06/16 12:56:58;;;;;;;4.25;1.63;;;;;;;;;;5016502;28;20893;-85
2022/06/16 12:59:24;;;;;;;5.03;1.83;;;;;;;;;;5051958;28;20409;-86
2022/06/16 13:01:52;;;;;;;2.20;1.58;;;;;;;;;;5015669;28;20412;-85
2022/06/16 13:04:24;;;;;;;3.63;1.60;;;;;;;;;;5032336;28;20386;-86
2022/06/16 13:06:51;;;;;;;3.63;1.77;;;;;;;;;;5017683;28;20938;-86
2022/06/16 13:09:17;;;;;;;4.38;1.90;;;;;;;;;;5049160;28;20705;-85
2022/06/16 13:11:52;;;;;;;2.73;1.93;;;;;;;;;;5039888;28;20416;-86
2022/06/16 13:14:28;;;;;;;4.35;1.95;;;;;;;;;;5027391;28;20834;-86
2022/06/16 13:16:55;;;;;;;2.73;1.73;;;;;;;;;;5029789;28;20789;-85
2022/06/16 13:19:26;;;;;;;4.25;1.98;;;;;;;;;;5026283;28;20788;-87
2022/06/16 13:21:56;;;;;;;3.17;1.90;;;;;;;;;;5018418;28;20468;-87
2022/06/16 13:24:40;;;;;;;3.45;1.92;;;;;;;;;;5017742;28;20387;-87
2022/06/16 13:27:12;;;;;;;3.10;1.70;;;;;;;;;;5024973;28;20885;-87
2022/06/16 13:29:41;;;;;;;4.05;1.98;;;;;;;;;;5018501;28;20742;-86
2022/06/16 13:32:20;;;;;;;3.58;1.77;;;;;;;;;;5015340;28;20475;-87
2022/06/16 13:34:57;;;;;;;4.30;1.83;;;;;;;;;;5017411;28;20420;-87
2022/06/16 13:37:27;;;;;;;4.78;2.10;;;;;;;;;;5032735;28;20610;-87
2022/06/16 13:40:12;;;;;;;4.17;1.80;;;;;;;;;;5018110;28;20402;-86
2022/06/16 13:42:55;;;;;;;4.13;1.70;;;;;;;;;;5033814;28;20391;-86
2022/06/16 13:45:30;;;;;;;5.00;1.90;;;;;;;;;;5038329;28;20383;-87
2022/06/16 13:48:06;;;;;;;3.05;1.70;;;;;;;;;;5036086;28;20387;-88
2022/06/16 13:50:52;;;;;;;3.03;1.70;;;;;;;;;;5029918;28;20379;-87
2022/06/16 13:53:23;;;;;;;4.38;2.00;;;;;;;;;;5054723;28;20401;-87
2022/06/16 13:55:55;;;;;;;4.88;1.60;;;;;;;;;;5054908;28;20384;-85
2022/06/16 13:58:31;;;;;;;4.95;1.77;;;;;;;;;;5035465;28;20383;-86
2022/06/16 14:01:13;;;;;;;3.53;1.70;;;;;;;;;;5035737;28;20431;-84
2022/06/16 14:03:59;;;;;;;3.55;1.80;;;;;;;;;;5046027;28;20464;-86
2022/06/16 14:06:28;;;;;;;5.57;1.70;;;;;;;;;;5048029;28;20389;-86
2022/06/16 14:09:00;;;;;;;5.25;1.80;;;;;;;;;;5045099;28;20907;-87
2022/06/16 14:11:31;;;;;;;4.65;1.73;;;;;;;;;;5039152;28;20413;-85
2022/06/16 14:14:17;;;;;;;2.40;1.70;;;;;;;;;;5041762;28;20413;-86
2022/06/16 14:16:53;;;;;;;3.22;1.58;;;;;;;;;;5054652;28;20871;-86
2022/06/16 14:19:26;;;;;;;2.22;1.55;;;;;;;;;;5055756;28;20448;-89
2022/06/16 14:22:00;;;;;;;3.38;1.73;;;;;;;;;;5048672;28;20383;-87
2022/06/16 14:24:45;;;;;;;4.72;1.80;;;;;;;;;;5042142;28;20857;-87
2022/06/16 14:27:14;;;;;;;4.43;1.77;;;;;;;;;;5043353;28;20939;-87
2022/06/16 14:29:40;;;;;;;4.38;1.70;;;;;;;;;;5048573;28;20381;-87
2022/06/16 14:32:13;;;;;;;3.97;1.67;;;;;;;;;;5052403;28;20431;-87
2022/06/16 14:35:02;;;;;;;4.80;1.90;;;;;;;;;;5052292;28;20409;-86
2022/06/16 14:37:33;;;;;;;4.72;1.75;;;;;;;;;;5036210;28;20720;-87
2022/06/16 14:40:17;;;;;;;7.20;2.10;;;;;;;;;;5052918;28;20380;-86
2022/06/16 14:42:45;;;;;;;3.90;2.05;;;;;;;;;;5051980;28;20370;-86
2022/06/16 14:45:20;;;;;;;4.25;1.75;;;;;;;;;;5036105;28;20385;-86
2022/06/16 14:47:57;;;;;;;3.67;1.95;;;;;;;;;;5036181;28;20371;-87
2022/06/16 14:50:27;;;;;;;5.10;2.03;;;;;;;;;;5034215;28;20501;-87
2022/06/16 14:53:11;;;;;;;3.87;1.90;;;;;;;;;;5041613;28;20746;-88
2022/06/16 14:55:54;;;;;;;5.65;2.00;;;;;;;;;;5052903;28;20381;-87
2022/06/16 14:58:21;;;;;;;4.20;1.90;;;;;;;;;;5052209;28;20473;-87
2022/06/16 15:00:49;;;;;;;4.43;2.10;;;;;;;;;;5040723;28;20494;-85
2022/06/16 15:03:19;;;;;;;4.68;2.25;;;;;;;;;;5041324;28;20377;-90
2022/06/16 15:05:45;;;;;;;5.00;1.87;;;;;;;;;;5051347;28;20392;-90
2022/06/16 15:08:18;;;;;;;4.93;2.00;;;;;;;;;;5045647;28;20391;-90
2022/06/16 15:10:45;;;;;;;3.73;2.00;;;;;;;;;;5033317;28;20441;-90
2022/06/16 15:13:11;;;;;;;4.53;1.80;;;;;;;;;;5051607;28;20421;-90
2022/06/16 15:15:38;;;;;;;4.53;1.90;;;;;;;;;;5053064;28;20384;-90
2022/06/16 15:18:10;;;;;;;4.57;2.00;;;;;;;;;;5038942;28;20867;-90
2022/06/16 15:20:37;;;;;;;5.32;2.30;;;;;;;;;;5053687;28;20845;-91
2022/06/16 15:23:03;;;;;;;4.17;2.13;;;;;;;;;;5053182;28;20385;-91